Flight Track Log - Related Links

Times and Time Zones

All times are in EDT time to prevent confusion due to time zone crossing. See the DAL1117 flight status page for this flight to view local times or setup timezone preferences in your user account.

Time Position Orientation Groundspeed Altitude Reporting Facility
EDT Latitude Longitude Course Direction KTS MPH feet Rate Location/Type
Mon 09:42:48 PM 42.1994 -83.3608 215° Southwest 154 177 1,500  Level Cleveland Center
Mon 09:43:06 PM 42.1908 -83.3689 215° Southwest 150 173 2,300 1,647 Climbing Cleveland Center
Mon 09:43:39 PM 42.1722 -83.3892 219° Southwest 188 216 2,900 1,154 Climbing FAA TRACON
Mon 09:43:58 PM 42.1589 -83.4036 219° Southwest 215 247 3,300 1,650 Climbing FAA TRACON
Mon 09:44:19 PM 42.1414 -83.4239 221° Southwest 238 274 4,000 2,780 Climbing FAA TRACON
Mon 09:44:39 PM 42.1247 -83.4433 221° Southwest 243 280 5,200 3,846 Climbing FAA TRACON
Mon 09:44:58 PM 42.1111 -83.4681 233° Southwest 227 261 6,500 3,450 Climbing FAA TRACON
Mon 09:45:19 PM 42.1136 -83.4975 277° West 230 265 7,500 3,000 Climbing FAA TRACON
Mon 09:45:38 PM 42.1236 -83.5203 301° West 233 268 8,500 2,850 Climbing FAA TRACON
Mon 09:45:59 PM 42.1358 -83.5453 303° West 239 275 9,400 2,850 Climbing FAA TRACON
Mon 09:46:18 PM 42.1472 -83.5722 300° West 242 278 10,400 2,100 Climbing FAA TRACON
Mon 09:46:39 PM 42.1600 -83.5997 302° West 268 308 10,800 1,171 Climbing FAA TRACON
Mon 09:46:59 PM 42.1747 -83.6328 301° West 287 330 11,200 1,231 Climbing FAA TRACON
Mon 09:47:18 PM 42.1886 -83.6631 302° West 306 352 11,600 1,650 Climbing FAA TRACON
Mon 09:47:39 PM 42.2014 -83.6922 301° West 318 366 12,300 1,950 Climbing FAA TRACON
Mon 09:47:58 PM 42.2189 -83.7292 303° West 319 367 12,900 1,050 Climbing FAA TRACON
Mon 09:48:19 PM 42.2353 -83.7658 301° West 318 366 13,000 146 Climbing FAA TRACON
Mon 09:48:39 PM 42.2483 -83.7947 301° West 318 366 13,000 154 Level FAA TRACON
Mon 09:48:58 PM 42.2642 -83.8292 302° West 321 369 13,100 1,500 Climbing FAA TRACON
Mon 09:49:19 PM 42.2822 -83.8694 301° West 324 373 14,000 3,150 Climbing FAA TRACON
Mon 09:49:38 PM 42.2967 -83.9017 301° West 323 372 15,200 3,450 Climbing FAA TRACON
Mon 09:49:59 PM 42.3108 -83.9328 302° West 318 366 16,300 2,864 Climbing FAA TRACON
Mon 09:50:22 PM 42.3281 -83.9706 302° West 310 357 17,300 2,714 Climbing FAA TRACON
Mon 09:50:41 PM 42.3453 -84.0094 301° West 312 359 18,200 2,270 Climbing FAA TRACON
Mon 09:50:59 PM 42.3561 -84.0331 302° West 315 362 18,700 2,757 Climbing FAA TRACON
Mon 09:51:18 PM 42.3742 -84.0731 301° West 319 367 19,900 3,231 Climbing FAA TRACON
Mon 09:51:38 PM 42.3858 -84.1025 298° West 316 364 20,800 2,488 Climbing FAA TRACON
Mon 09:51:59 PM 42.4011 -84.1344 303° West 307 353 21,600 2,100 Climbing FAA TRACON
Mon 09:52:18 PM 42.4147 -84.1644 302° West 306 352 22,200 1,800 Climbing FAA TRACON
Mon 09:52:39 PM 42.4264 -84.2042 292° West 308 354 22,800 1,800 Climbing FAA TRACON
Mon 09:52:58 PM 42.4289 -84.2411 275° West 313 360 23,400 1,650 Climbing FAA TRACON
Mon 09:53:19 PM 42.4306 -84.2861 273° West 314 361 23,900 1,024 Climbing FAA TRACON
Mon 09:53:39 PM 42.4303 -84.2953 268° West 314 361 24,100 1,393 Climbing FAA TRACON
Mon 09:55:11 PM 42.4358 -84.5011 272° West 324 373 26,500 1,052 Climbing Chicago Center
Mon 09:56:13 PM 42.4389 -84.6322 272° West 346 398 26,800 634 Climbing Chicago Center
Mon 09:57:14 PM 42.4422 -84.7722 272° West 369 425 27,800 976 Climbing Chicago Center
Mon 09:58:16 PM 42.4456 -84.9150 272° West 378 435 28,800 1,268 Climbing Chicago Center
Mon 09:59:17 PM 42.4492 -85.0575 272° West 379 436 30,400 1,415 Climbing Chicago Center
Mon 10:00:19 PM 42.4519 -85.1936 272° West 367 422 31,700 1,171 Climbing Chicago Center
Mon 10:01:20 PM 42.4550 -85.3578 272° West 365 420 32,800 1,366 Climbing Chicago Center
Mon 10:02:22 PM 42.4567 -85.4917 271° West 359 413 34,500 1,171 Climbing Chicago Center
Mon 10:03:23 PM 42.4589 -85.6206 271° West 347 399 35,200 683 Climbing Chicago Center
Mon 10:04:25 PM 42.4611 -85.7508 271° West 345 397 35,900 390 Climbing Chicago Center
Mon 10:05:26 PM 42.4633 -85.8831 271° West 350 403 36,000 49 Climbing Chicago Center
Mon 10:06:28 PM 42.4647 -86.0156 271° West 351 404 36,000  Level Chicago Center
Mon 10:07:29 PM 42.4597 -86.1500 267° West 355 409 36,000  Level Chicago Center
Mon 10:08:30 PM 42.4431 -86.2825 260° West 358 412 36,000  Level Chicago Center
Mon 10:09:32 PM 42.4269 -86.4156 261° West 358 412 36,000  Level Chicago Center
Mon 10:10:33 PM 42.4092 -86.5483 260° West 357 411 36,000  Level Chicago Center
Mon 10:11:35 PM 42.3919 -86.6967 261° West 362 417 36,000  Level Chicago Center
Mon 10:12:36 PM 42.3750 -86.8297 260° West 362 417 36,000  Level Chicago Center
Mon 10:13:37 PM 42.3575 -86.9625 260° West 363 418 36,000  Level Chicago Center
Mon 10:14:39 PM 42.3344 -87.1189 259° West 357 411 36,000  Level Chicago Center
Mon 10:15:40 PM 42.3169 -87.2528 260° West 362 417 36,000  Level Chicago Center
Mon 10:16:42 PM 42.2997 -87.3867 260° West 366 421 36,000  Level Chicago Center
Mon 10:17:44 PM 42.2806 -87.5239 259° West 372 428 36,000  Level Chicago Center
Mon 10:18:44 PM 42.2622 -87.6578 260° West 368 423 36,000  Level Chicago Center
Mon 10:19:46 PM 42.2431 -87.7944 259° West 373 429 36,000  Level Chicago Center
Mon 10:20:47 PM 42.2247 -87.9286 260° West 370 426 36,000  Level Chicago Center
Mon 10:21:49 PM 42.1972 -88.0878 257° West 368 423 36,000  Level Chicago Center
Mon 10:22:50 PM 42.1747 -88.2181 257° West 362 417 36,000  Level Chicago Center
Mon 10:23:51 PM 42.1519 -88.3436 256° West 351 404 36,000  Level Chicago Center
Mon 10:24:53 PM 42.1292 -88.4717 257° West 354 407 36,000  Level Chicago Center
Mon 10:25:54 PM 42.1061 -88.6008 257° West 356 410 36,000  Level Chicago Center
Mon 10:26:55 PM 42.0825 -88.7297 256° West 358 412 36,000  Level Chicago Center
Mon 10:27:57 PM 42.0592 -88.8592 256° West 360 414 36,000  Level Chicago Center
Mon 10:28:58 PM 42.0297 -89.0144 256° West 361 415 36,000  Level Chicago Center
Mon 10:29:59 PM 42.0067 -89.1442 257° West 362 417 36,000  Level Chicago Center
Mon 10:31:01 PM 41.9828 -89.2750 256° West 363 418 36,000  Level Chicago Center
Mon 10:32:02 PM 41.9581 -89.4058 256° West 362 417 36,000  Level Chicago Center
Mon 10:33:03 PM 41.9328 -89.5375 256° West 367 422 36,000  Level Chicago Center
Mon 10:34:05 PM 41.9086 -89.6664 256° West 360 414 36,000  Level Chicago Center
Mon 10:35:06 PM 41.8836 -89.7953 255° West 360 414 36,000  Level Chicago Center
Mon 10:36:07 PM 41.8589 -89.9244 256° West 359 413 36,000  Level Chicago Center
Mon 10:37:08 PM 41.8306 -90.0789 256° West 357 411 36,000  Level Chicago Center
Mon 10:38:10 PM 41.8058 -90.2078 256° West 359 413 36,000  Level Chicago Center
Mon 10:39:11 PM 41.7808 -90.3283 254° West 366 421 36,000  Level Chicago Center
Mon 10:40:12 PM 41.7550 -90.4581 255° West 363 418 36,000  Level Chicago Center
Mon 10:41:13 PM 41.7289 -90.5878 255° West 363 418 36,000  Level Chicago Center
Mon 10:42:14 PM 41.7017 -90.7261 255° West 362 417 36,000  Level Chicago Center
Mon 10:43:16 PM 41.6750 -90.8550 255° West 362 417 36,000  Level Chicago Center
Mon 10:44:17 PM 41.6500 -90.9833 255° West 360 414 36,000  Level Chicago Center
Mon 10:45:18 PM 41.6181 -91.1378 255° West 360 414 36,000  Level Chicago Center
Mon 10:46:19 PM 41.5919 -91.2669 255° West 360 414 36,000  Level Chicago Center
Mon 10:47:20 PM 41.5644 -91.3950 254° West 361 415 36,000  Level Chicago Center
Mon 10:48:21 PM 41.5383 -91.5250 255° West 364 419 36,000  Level Chicago Center
Mon 10:49:22 PM 41.5156 -91.6542 257° West 362 417 36,000  Level Chicago Center
Mon 10:50:24 PM 41.5033 -91.7867 263° West 362 417 36,000  Level Chicago Center
Mon 10:51:25 PM 41.4867 -91.9192 261° West 364 419 36,000  Level Chicago Center
Mon 10:52:26 PM 41.4569 -92.0483 253° West 367 422 36,000  Level Chicago Center
Mon 10:53:27 PM 41.4208 -92.2056 253° West 372 428 36,000  Level Chicago Center
Mon 10:54:28 PM 41.3914 -92.3369 253° West 373 429 36,000  Level Chicago Center
Mon 10:55:29 PM 41.3644 -92.4531 253° West 370 426 36,000  Level Chicago Center
Mon 10:56:30 PM 41.3350 -92.5828 253° West 371 427 36,000  Level Chicago Center
Mon 10:57:20 PM 41.3044 -92.7142 253° West 372 428 36,000  Level Minneapolis Center
Mon 10:58:21 PM 41.2747 -92.8431 253° West 370 426 36,000  Level Minneapolis Center
Mon 10:59:22 PM 41.2442 -92.9736 253° West 373 429 36,000  Level Minneapolis Center
Mon 11:00:23 PM 41.2136 -93.1042 253° West 374 430 36,000  Level Minneapolis Center
Mon 11:01:24 PM 41.1819 -93.2358 252° West 377 434 36,000  Level Minneapolis Center
Mon 11:02:25 PM 41.1506 -93.3675 252° West 379 436 36,000  Level Minneapolis Center
Mon 11:03:26 PM 41.1194 -93.4964 252° West 374 430 36,000  Level Minneapolis Center
Mon 11:04:27 PM 41.0886 -93.6283 253° West 376 433 36,000  Level Minneapolis Center
Mon 11:05:28 PM 41.0489 -93.7875 252° West 381 438 36,000  Level Minneapolis Center
Mon 11:06:29 PM 41.0161 -93.9200 252° West 382 440 36,000  Level Minneapolis Center
Mon 11:07:30 PM 40.9833 -94.0531 252° West 382 440 36,000  Level Minneapolis Center
Mon 11:08:31 PM 40.9511 -94.1839 252° West 380 437 36,000  Level Minneapolis Center
Mon 11:09:32 PM 40.9175 -94.3169 252° West 382 440 36,000  Level Minneapolis Center
Mon 11:10:33 PM 40.8828 -94.4494 251° West 384 442 36,000  Level Minneapolis Center
Mon 11:11:35 PM 40.8511 -94.5792 252° West 379 436 36,000  Level Minneapolis Center
Mon 11:12:36 PM 40.8192 -94.7108 252° West 376 433 36,000  Level Minneapolis Center
Mon 11:13:37 PM 40.7786 -94.8653 251° West 373 429 36,000  Level Minneapolis Center
Mon 11:14:38 PM 40.7467 -94.9944 252° West 370 426 36,000  Level Minneapolis Center
Mon 11:15:39 PM 40.7131 -95.1242 251° West 372 428 36,000  Level Minneapolis Center
Mon 11:16:40 PM 40.6806 -95.2539 252° West 373 429 36,000  Level Minneapolis Center
Mon 11:17:41 PM 40.6472 -95.3836 251° West 372 428 36,000  Level Minneapolis Center
Mon 11:18:42 PM 40.6122 -95.5153 251° West 377 434 36,000  Level Minneapolis Center
Mon 11:19:43 PM 40.5783 -95.6439 251° West 373 429 36,000  Level Minneapolis Center
Mon 11:20:44 PM 40.5447 -95.7731 251° West 372 428 36,000  Level Minneapolis Center
Mon 11:21:46 PM 40.5106 -95.9022 251° West 372 428 36,000  Level Minneapolis Center
Mon 11:22:47 PM 40.4758 -96.0283 250° West 368 423 36,000  Level Minneapolis Center
Mon 11:23:48 PM 40.4417 -96.1567 251° West 370 426 36,000  Level Minneapolis Center
Mon 11:24:49 PM 40.4083 -96.2842 251° West 369 425 36,000  Level Minneapolis Center
Mon 11:25:50 PM 40.3728 -96.4125 250° West 371 427 36,000  Level Minneapolis Center
Mon 11:26:51 PM 40.3383 -96.5392 250° West 371 427 36,000  Level Minneapolis Center
Mon 11:27:52 PM 40.3042 -96.6650 250° West 367 422 36,000  Level Minneapolis Center
Mon 11:28:53 PM 40.2625 -96.8139 250° West 364 419 36,000  Level Minneapolis Center
Mon 11:29:54 PM 40.2294 -96.9394 251° West 364 419 36,000  Level Minneapolis Center
Mon 11:30:55 PM 40.1950 -97.0622 250° West 361 415 36,000  Level Minneapolis Center
Mon 11:31:56 PM 40.1611 -97.1850 250° West 360 414 36,000  Level Minneapolis Center
Mon 11:32:57 PM 40.1256 -97.3075 249° West 359 413 36,000  Level Minneapolis Center
Mon 11:33:58 PM 40.0928 -97.4258 250° West 364 419 36,000  Level Minneapolis Center
Mon 11:34:59 PM 40.0564 -97.5519 249° West 368 423 36,000  Level Minneapolis Center
Mon 11:36:00 PM 40.0208 -97.6783 250° West 369 425 36,000  Level Minneapolis Center
Mon 11:37:01 PM 39.9853 -97.8017 249° West 367 422 36,000  Level Minneapolis Center
Mon 11:38:02 PM 39.9497 -97.9256 250° West 364 419 36,000  Level Minneapolis Center
Mon 11:39:03 PM 39.9142 -98.0500 250° West 365 420 36,000  Level Minneapolis Center
Mon 11:40:04 PM 39.8725 -98.1964 250° West 361 415 36,000  Level Minneapolis Center
Mon 11:41:05 PM 39.8353 -98.3214 249° West 366 421 36,000  Level Minneapolis Center
Mon 11:42:06 PM 39.7989 -98.4447 249° West 366 421 36,000  Level Minneapolis Center
Mon 11:43:07 PM 39.7617 -98.5694 249° West 367 422 36,000  Level Minneapolis Center
Mon 11:44:08 PM 39.7256 -98.6967 250° West 371 427 36,000  Level Minneapolis Center
Mon 11:45:08 PM 39.6881 -98.8203 249° West 370 426 36,000  Level Minneapolis Center
Mon 11:45:44 PM 39.6664 -98.8958 250° West 369 425 36,000  Level Denver Center
Mon 11:46:45 PM 39.6283 -99.0214 249° West 371 427 36,000  Level Denver Center
Mon 11:47:47 PM 39.5903 -99.1461 248° West 372 428 36,000  Level Denver Center
Mon 11:48:48 PM 39.5539 -99.2722 250° West 373 429 36,000  Level Denver Center
Mon 11:49:49 PM 39.5156 -99.3953 248° West 370 426 36,000  Level Denver Center
Mon 11:50:50 PM 39.4781 -99.5175 248° West 366 421 36,000  Level Denver Center
Mon 11:51:52 PM 39.4400 -99.6417 248° West 367 422 36,000  Level Denver Center
Mon 11:52:53 PM 39.3967 -99.7814 248° West 373 429 36,000  Level Denver Center
Mon 11:53:54 PM 39.3592 -99.9033 248° West 380 437 36,000  Level Denver Center
Mon 11:54:55 PM 39.3219 -100.0228 248° West 376 433 36,000  Level Denver Center
Mon 11:55:57 PM 39.2778 -100.1650 248° West 381 438 36,000  Level Denver Center
Mon 11:56:58 PM 39.2531 -100.2892 256° West 376 433 36,000  Level Denver Center
Mon 11:57:59 PM 39.2422 -100.4411 265° West 379 436 36,000  Level Denver Center
Mon 11:59:00 PM 39.2319 -100.5728 264° West 383 441 36,000  Level Denver Center
Tue 12:00:04 AM 39.2200 -100.7222 264° West 378 435 36,000  Level Denver Center
Tue 12:01:06 AM 39.2094 -100.8531 264° West 382 440 36,000  Level Denver Center
Tue 12:02:07 AM 39.1986 -100.9825 264° West 381 438 36,000  Level Denver Center
Tue 12:03:08 AM 39.1853 -101.1386 264° West 390 449 36,000  Level Denver Center
Tue 12:04:09 AM 39.1742 -101.2689 264° West 385 443 36,000  Level Denver Center
Tue 12:05:11 AM 39.1606 -101.4206 263° West 381 438 36,000  Level Denver Center
Tue 12:06:12 AM 39.1489 -101.5517 263° West 384 442 36,000  Level Denver Center
Tue 12:07:13 AM 39.1378 -101.6833 264° West 385 443 36,000  Level Denver Center
Tue 12:08:14 AM 39.1258 -101.8269 264° West 383 441 36,000  Level Denver Center
Tue 12:09:15 AM 39.1133 -101.9558 263° West 381 438 36,000  Level Denver Center
Tue 12:10:17 AM 39.1000 -102.1097 264° West 386 444 36,000  Level Denver Center
Tue 12:11:18 AM 39.0869 -102.2417 263° West 390 449 36,000  Level Denver Center
Tue 12:12:19 AM 39.0725 -102.3953 263° West 389 448 36,000  Level Denver Center
Tue 12:13:20 AM 39.0597 -102.5269 263° West 389 448 36,000  Level Denver Center
Tue 12:14:21 AM 39.0461 -102.6578 262° West 386 444 36,000  Level Denver Center
Tue 12:15:22 AM 39.0328 -102.8064 263° West 386 444 36,000  Level Denver Center
Tue 12:16:23 AM 39.0192 -102.9442 263° West 385 443 36,000  Level Denver Center
Tue 12:17:25 AM 39.0050 -103.0833 263° West 390 449 36,000  Level Denver Center
Tue 12:18:26 AM 38.9914 -103.2228 263° West 388 447 36,000  Level Denver Center
Tue 12:19:27 AM 38.9767 -103.3625 262° West 390 449 36,000  Level Denver Center
Tue 12:20:28 AM 38.9617 -103.5033 262° West 393 452 36,000  Level Denver Center
Tue 12:21:29 AM 38.9461 -103.6450 262° West 397 457 36,000  Level Denver Center
Tue 12:22:30 AM 38.9322 -103.7847 263° West 393 452 36,000  Level Denver Center
Tue 12:23:31 AM 38.9169 -103.9242 262° West 392 451 36,000  Level Denver Center
Tue 12:24:32 AM 38.9022 -104.0631 262° West 390 449 36,000  Level Denver Center
Tue 12:25:33 AM 38.8869 -104.2000 262° West 385 443 36,000  Level Denver Center
Tue 12:26:33 AM 38.8714 -104.3381 262° West 386 444 36,000  Level Denver Center
Tue 12:27:34 AM 38.8556 -104.4769 262° West 389 448 36,000  Level Denver Center
Tue 12:28:35 AM 38.8397 -104.6175 262° West 392 451 36,000  Level Denver Center
Tue 12:29:36 AM 38.8233 -104.7558 261° West 388 447 36,000  Level Denver Center
Tue 12:30:37 AM 38.8067 -104.8967 261° West 394 453 36,000  Level Denver Center
Tue 12:31:38 AM 38.7900 -105.0389 261° West 397 457 36,000  Level Denver Center
Tue 12:32:39 AM 38.7733 -105.1808 261° West 398 458 36,000  Level Denver Center
Tue 12:33:40 AM 38.7567 -105.3222 261° West 398 458 36,000  Level Denver Center
Tue 12:34:41 AM 38.7389 -105.4650 261° West 403 464 36,000  Level Denver Center
Tue 12:35:42 AM 38.7214 -105.6042 261° West 395 455 36,000  Level Denver Center
Tue 12:36:42 AM 38.7044 -105.7458 261° West 397 457 36,000  Level Denver Center
Tue 12:37:43 AM 38.6864 -105.8875 261° West 400 460 36,000  Level Denver Center
Tue 12:38:44 AM 38.6681 -106.0267 260° West 395 455 36,000  Level Denver Center
Tue 12:39:45 AM 38.6489 -106.1769 261° West 398 458 36,000  Level Denver Center
Tue 12:40:46 AM 38.6303 -106.3242 261° West 395 455 36,000  Level Denver Center
Tue 12:41:47 AM 38.6125 -106.4628 261° West 394 453 36,000  Level Denver Center
Tue 12:42:47 AM 38.5931 -106.6022 260° West 395 455 36,000  Level Denver Center
Tue 12:43:48 AM 38.5786 -106.7125 261° West 392 451 36,000  Level Denver Center
Tue 12:44:49 AM 38.5561 -106.8806 260° West 397 457 36,000  Level Denver Center
Tue 12:45:50 AM 38.5367 -107.0214 260° West 400 460 36,000  Level Denver Center
Tue 12:46:51 AM 38.5175 -107.1622 260° West 400 460 36,000 50 Level Denver Center
Tue 12:47:51 AM 38.4978 -107.3078 260° West 400 460 36,100  Climbing Denver Center
Tue 12:48:52 AM 38.4797 -107.4372 260° West 390 449 36,000 -49 Descending Denver Center
Tue 12:49:53 AM 38.4611 -107.5678 260° West 391 450 36,000 -50 Level Denver Center
Tue 12:50:53 AM 38.4394 -107.7172 260° West 386 444 35,900  Descending Denver Center
Tue 12:51:54 AM 38.4211 -107.8458 260° West 384 442 36,000 49 Climbing Denver Center
Tue 12:52:55 AM 38.4019 -107.9769 259° West 390 449 36,000  Level Denver Center
Tue 12:53:56 AM 38.3803 -108.1314 260° West 395 455 36,000  Level Denver Center
Tue 12:54:56 AM 38.3611 -108.2664 260° West 402 463 36,000  Level Denver Center
Tue 12:55:57 AM 38.3403 -108.4022 259° West 406 467 36,000  Level Denver Center
Tue 12:56:58 AM 38.3161 -108.5628 259° West 411 473 36,000  Level Denver Center
Tue 12:57:59 AM 38.2953 -108.7008 259° West 414 476 36,000  Level Denver Center
Tue 12:58:59 AM 38.2753 -108.8400 260° West 416 479 36,000  Level Denver Center
Tue 01:00:00 AM 38.2492 -109.0019 258° West 418 481 36,000  Level Denver Center
Tue 01:01:01 AM 38.2275 -109.1439 259° West 422 486 36,000 49 Level Denver Center
Tue 01:02:02 AM 38.2058 -109.2847 259° West 423 487 36,100  Climbing Denver Center
Tue 01:03:02 AM 38.1778 -109.4492 258° West 424 488 36,000 -50 Descending Denver Center
Tue 01:04:03 AM 38.1564 -109.5906 259° West 424 488 36,000  Level Denver Center
Tue 01:05:04 AM 38.1342 -109.7308 259° West 423 487 36,000  Level Denver Center
Tue 01:06:04 AM 38.1117 -109.8689 258° West 419 482 36,000  Level Denver Center
Tue 01:07:05 AM 38.0853 -110.0308 258° West 419 482 36,000  Level Denver Center
Tue 01:08:06 AM 38.0622 -110.1692 258° West 419 482 36,000  Level Denver Center
Tue 01:09:06 AM 38.0392 -110.3097 258° West 424 488 36,000  Level Denver Center
Tue 01:10:07 AM 38.0128 -110.4717 258° West 419 482 36,000  Level Denver Center
Tue 01:11:08 AM 37.9886 -110.6089 257° West 423 487 36,000  Level Denver Center
Tue 01:12:08 AM 37.9644 -110.7558 258° West 427 491 36,000  Level Denver Center
Tue 01:13:09 AM 37.9392 -110.9025 258° West 428 493 36,000  Level Denver Center
Tue 01:14:10 AM 37.9144 -111.0486 258° West 427 491 36,000  Level Denver Center
Tue 01:15:10 AM 37.8889 -111.1942 258° West 425 489 36,000  Level Denver Center
Tue 01:16:19 AM 37.8578 -111.3692 257° West 425 489 36,000  Level Salt Center
Tue 01:17:20 AM 37.8033 -111.5008 242° Southwest 427 491 36,000  Level Salt Center
Tue 01:18:21 AM 37.7453 -111.6314 241° Southwest 426 490 36,000  Level Salt Center
Tue 01:19:21 AM 37.6842 -111.7603 239° Southwest 427 491 36,000  Level Salt Center
Tue 01:20:22 AM 37.6242 -111.8900 240° Southwest 428 493 36,000  Level Salt Center
Tue 01:21:23 AM 37.5653 -112.0189 240° Southwest 424 488 36,000  Level Salt Center
Tue 01:22:24 AM 37.5047 -112.1481 239° Southwest 426 490 36,000 -443 Level Salt Center
Tue 01:23:25 AM 37.4444 -112.2792 240° Southwest 429 494 35,100 -1,140 Descending Salt Center
Tue 01:24:25 AM 37.3836 -112.4072 239° Southwest 426 490 33,700 -1,438 Descending Salt Center
Tue 01:25:26 AM 37.3214 -112.5386 239° Southwest 431 496 32,200 -1,475 Descending Salt Center
Tue 01:26:27 AM 37.2586 -112.6689 239° Southwest 432 497 30,700 -1,082 Descending Salt Center
Tue 01:27:28 AM 37.1994 -112.7950 240° Southwest 423 487 30,000 -545 Descending Salt Center
Tue 01:28:28 AM 37.1389 -112.9203 239° Southwest 418 481 29,600 -793 Descending Salt Center
Tue 01:29:29 AM 37.0664 -113.0722 239° Southwest 420 483 28,400 -1,082 Descending Salt Center
Tue 01:30:30 AM 37.0042 -113.2008 239° Southwest 427 491 27,400 -938 Descending Salt Center
Tue 01:31:37 AM 36.9447 -113.3253 239° Southwest 422 486 26,400 -891 Descending Los Center
Tue 01:32:38 AM 36.8869 -113.4453 239° Southwest 409 471 25,500 -934 Descending Los Center
Tue 01:33:39 AM 36.8272 -113.5661 238° Southwest 407 468 24,500 -738 Descending Los Center
Tue 01:34:40 AM 36.7683 -113.6847 238° Southwest 405 466 24,000 -246 Descending Los Center
Tue 01:35:41 AM 36.7078 -113.8114 239° Southwest 420 483 24,000 -197 Level Los Center
Tue 01:36:42 AM 36.6461 -113.9400 239° Southwest 432 497 23,600 -1,967 Descending Los Center
Tue 01:37:43 AM 36.5725 -114.0911 239° Southwest 426 490 20,000 -3,295 Descending Los Center
Tue 01:38:44 AM 36.5167 -114.2125 240° Southwest 410 472 16,900 -2,951 Descending Los Center
Tue 01:39:45 AM 36.4611 -114.3350 241° Southwest 395 455 14,000 -2,529 Descending Los Center
Tue 01:40:26 AM 36.4286 -114.4119 242° Southwest 387 445 12,600 -1,770 Descending Los Center
Tue 01:40:46 AM 36.4086 -114.4481 235° Southwest 381 438 12,200 -837 Descending Los Center
Tue 01:41:09 AM 36.3894 -114.4789 232° Southwest 360 414 12,000 -393 Descending Los Center
Tue 01:41:47 AM 36.3281 -114.4992 195° South 336 387 11,800 -885 Descending Los Center
Tue 01:42:10 AM 36.3011 -114.5303 223° Southwest 321 369 11,100 -1,770 Descending Los Center
Tue 01:42:48 AM 36.2567 -114.5636 211° Southwest 321 369 10,000 -1,900 Descending Los Center
Tue 01:43:10 AM 36.2286 -114.5922 219° Southwest 318 366 9,200 -1,377 Descending Los Center
Tue 01:43:49 AM 36.1994 -114.6150 212° Southwest 318 366 8,600 -1,082 Descending Los Center
Tue 01:44:11 AM 36.1583 -114.6561 219° Southwest 314 361 8,100 -590 Descending Los Center
Tue 01:44:50 AM 36.1178 -114.6856 210° Southwest 307 353 8,000 -98 Descending Los Center
Tue 01:45:12 AM 36.1000 -114.7050 221° Southwest 252 290 8,000  Level Los Center
Tue 01:45:51 AM 36.0739 -114.7344 222° Southwest 243 280 8,000  Level Los Center
Tue 01:46:13 AM 36.0756 -114.7611 274° West 194 223 8,000 -689 Level Los Center
Tue 01:46:52 AM 36.0747 -114.7961 268° West 189 217 7,300 -1,000 Descending Los Center
Tue 01:47:13 AM 36.0739 -114.8228 268° West 174 200 7,000 -885 Descending Los Center
Tue 01:47:53 AM 36.0731 -114.8575 268° West 181 208 6,400 -1,082 Descending Los Center
Tue 01:48:14 AM 36.0744 -114.8839 274° West 175 201 5,900 -904 Descending Los Center
Tue 01:49:06 AM 36.0739 -114.9200 269° West 180 207 5,300 -956 Descending Los Center
Tue 01:50:07 AM 36.0739 -114.9967 270° West 183 211 4,100 -1,033 Descending Los Center
Tue 01:51:08 AM 36.0733 -115.0544 269° West 178 205 3,200 -787 Descending Los Center
Tue 01:52:09 AM 36.0731 -115.0986 270° West 154 177 2,500 -590 Descending Los Center
Tue 01:53:10 AM 36.0700 -115.1483 266° West 142 163 2,000 -492 Descending Los Center

Login

Don't have an account? Register now (free) for customized features, flight alerts, and more!